Time;durP1;ratioP1;P1;durP2;ratioP2;P2;SDS_P1;SDS_P2;PMS_P1;PMS_P2;Temp;Humidity;BMP_temperature;BMP_pressure;BME280_temperature;BME280_humidity;BME280_pressure;Samples;Min_cycle;Max_cycle;Signal;HPM_P1;HPM_P2
2023/08/10 00:01:12;;;;;;;17.80;14.30;;;;;;;12.90;73.61;100711.08;110147;1267;21993;-88
2023/08/10 00:04:17;;;;;;;17.20;13.60;;;;;;;12.91;73.74;100711.73;110419;1267;22730;-86
2023/08/10 00:12:00;;;;;;;16.30;14.60;;;;;;;12.99;74.17;100716.29;109536;1275;22025;-86
2023/08/10 00:15:16;;;;;;;20.30;14.30;;;;;;;13.01;73.96;100717.06;109820;1271;21980;-88
2023/08/10 00:18:47;;;;;;;15.50;13.90;;;;;;;13.02;73.76;100721.42;109686;1271;22136;-86
2023/08/10 00:22:13;;;;;;;16.00;13.80;;;;;;;12.98;73.70;100723.84;109399;1275;23042;-88
2023/08/10 00:25:07;;;;;;;19.30;14.70;;;;;;;12.93;73.69;100725.23;109394;1273;22943;-86
2023/08/10 00:27:56;;;;;;;16.10;13.90;;;;;;;12.82;73.59;100714.55;109687;1273;23074;-85
2023/08/10 00:30:47;;;;;;;17.70;13.80;;;;;;;12.89;73.89;100725.93;109564;1273;22540;-84
2023/08/10 00:33:39;;;;;;;;;;;;;;;;;;;;;
2023/08/10 00:36:30;;;;;;;15.90;13.50;;;;;;;12.92;73.99;100728.80;109924;1269;21974;-86
2023/08/10 00:39:39;;;;;;;14.70;13.20;;;;;;;12.92;73.94;100730.90;109953;1269;21978;-86
2023/08/10 00:42:33;;;;;;;19.90;15.30;;;;;;;12.91;74.05;100734.24;110122;1264;22172;-85
2023/08/10 00:45:27;;;;;;;15.90;14.20;;;;;;;12.91;73.88;100735.30;110587;1265;23000;-85
2023/08/10 00:48:52;;;;;;;;;;;;;;;12.87;74.06;100736.50;109313;1277;23621;-86
2023/08/10 00:51:47;;;;;;;17.50;13.90;;;;;;;12.79;74.29;100742.41;109367;1277;22461;-85
2023/08/10 00:54:59;;;;;;;15.10;13.00;;;;;;;12.80;74.20;100738.36;109282;1271;23210;-86
2023/08/10 00:57:39;;;;;;;16.30;13.80;;;;;;;12.83;74.38;100736.00;109014;1282;23823;-84
2023/08/10 01:00:32;;;;;;;15.00;13.50;;;;;;;12.87;74.19;100734.42;109070;1279;22032;-85
2023/08/10 01:03:13;;;;;;;15.00;13.30;;;;;;;12.90;74.14;100740.41;109179;1279;22010;-86
2023/08/10 01:06:34;;;;;;;15.80;13.30;;;;;;;12.89;74.09;100740.42;109645;1260;23029;-86
2023/08/10 01:10:19;;;;;;;14.70;13.20;;;;;;;12.87;74.22;100736.86;109615;1273;23712;-87
2023/08/10 01:13:28;;;;;;;15.70;12.10;;;;;;;12.86;74.25;100734.27;109561;1268;23672;-85
2023/08/10 01:16:34;;;;;;;14.70;12.20;;;;;;;12.87;74.17;100731.11;109777;1272;22006;-83
2023/08/10 01:19:39;;;;;;;13.20;11.80;;;;;;;12.86;74.05;100733.61;109278;1278;22007;-82
2023/08/10 01:22:39;;;;;;;14.20;12.70;;;;;;;12.85;74.16;100733.45;109433;1278;21983;-84
2023/08/10 01:25:28;;;;;;;16.70;13.60;;;;;;;12.86;73.96;100736.02;109235;1278;22069;-88
2023/08/10 01:28:28;;;;;;;16.30;12.30;;;;;;;12.86;73.89;100738.48;109760;1267;24292;-87
2023/08/10 01:31:43;;;;;;;15.40;12.60;;;;;;;12.82;73.72;100738.48;110226;1267;21974;-87
2023/08/10 01:35:18;;;;;;;19.90;13.60;;;;;;;12.70;73.55;100738.92;109401;1271;21863;-86
2023/08/10 01:38:20;;;;;;;16.00;13.70;;;;;;;12.58;73.65;100742.41;109172;1276;21907;-88
2023/08/10 01:41:14;;;;;;;;;;;;;;;;;;;;;
2023/08/10 01:44:26;;;;;;;14.20;12.90;;;;;;;12.37;73.75;100746.87;108935;1285;22506;-87
2023/08/10 01:48:28;;;;;;;17.50;14.20;;;;;;;12.29;74.19;100749.98;108547;1287;22348;-86
2023/08/10 01:51:44;;;;;;;13.90;12.40;;;;;;;12.24;74.47;100756.44;108662;1279;22334;-88
2023/08/10 01:54:49;;;;;;;15.90;14.30;;;;;;;12.25;74.52;100754.66;108814;1283;22013;-86
2023/08/10 01:57:54;;;;;;;17.80;14.00;;;;;;;12.26;74.54;100755.52;109032;1280;22298;-84
2023/08/10 02:01:00;;;;;;;17.20;15.40;;;;;;;12.25;74.54;100756.05;109183;1280;21990;-84
2023/08/10 02:03:40;;;;;;;18.00;16.00;;;;;;;12.26;74.62;100757.60;109335;1275;21954;-86
2023/08/10 02:06:47;;;;;;;17.40;15.30;;;;;;;12.26;74.57;100759.35;109969;1268;22006;-86
2023/08/10 02:10:14;;;;;;;;;;;;;;;;;;;;;
2023/08/10 02:13:14;;;;;;;18.90;16.00;;;;;;;12.28;74.78;100766.09;110038;1268;23758;-88
2023/08/10 02:16:01;;;;;;;16.90;14.50;;;;;;;12.29;74.59;100765.33;110519;1265;24347;-86
2023/08/10 02:19:07;;;;;;;19.50;15.70;;;;;;;12.29;74.59;100770.73;110375;1266;24208;-86
2023/08/10 02:22:02;;;;;;;19.00;17.00;;;;;;;12.31;74.54;100774.71;109760;1272;22058;-87
2023/08/10 02:24:59;;;;;;;;;;;;;;;12.31;74.49;100774.32;109928;1269;22985;-86
2023/08/10 02:28:18;;;;;;;;;;;;;;;;;;;;;
2023/08/10 02:31:04;;;;;;;19.80;17.30;;;;;;;12.22;74.76;100769.98;110186;1267;21973;-87
2023/08/10 02:34:11;;;;;;;18.90;17.10;;;;;;;12.20;74.71;100766.20;109836;1272;21996;-86
2023/08/10 02:37:18;;;;;;;21.30;18.10;;;;;;;12.22;74.62;100778.16;109731;1272;21914;-85
2023/08/10 02:40:26;;;;;;;19.40;16.90;;;;;;;12.26;74.57;100781.86;109783;1270;21983;-85
2023/08/10 02:43:18;;;;;;;18.30;16.20;;;;;;;12.24;74.66;100790.33;109512;1274;22011;-86
2023/08/10 02:46:17;;;;;;;18.50;16.70;;;;;;;12.24;74.68;100786.98;109518;1273;23749;-85
2023/08/10 02:49:28;;;;;;;;;;;;;;;12.23;74.73;100783.73;109064;1278;21980;-86
2023/08/10 02:52:28;;;;;;;17.70;16.00;;;;;;;12.15;74.90;100782.98;109126;1278;23082;-86
2023/08/10 02:55:22;;;;;;;20.00;16.40;;;;;;;12.15;74.80;100785.76;108989;1282;22006;-86
2023/08/10 02:58:47;;;;;;;21.60;18.90;;;;;;;12.16;74.71;100786.41;109085;1278;21998;-86
2023/08/10 03:01:43;;;;;;;22.60;20.60;;;;;;;12.16;74.72;100785.02;109179;1277;22689;-85
2023/08/10 03:05:12;;;;;;;24.30;22.00;;;;;;;12.17;74.73;100788.34;109198;1280;22001;-87
2023/08/10 03:08:26;;;;;;;23.30;20.80;;;;;;;12.14;74.78;100789.64;108887;1283;23787;-88
2023/08/10 03:11:50;;;;;;;26.90;20.50;;;;;;;12.11;74.66;100790.27;108720;1288;22368;-85
2023/08/10 03:15:09;;;;;;;;;;;;;;;;;;;;;
2023/08/10 03:18:00;;;;;;;23.90;21.60;;;;;;;12.10;74.57;100790.67;108316;1289;21814;-85
2023/08/10 03:21:15;;;;;;;23.70;21.40;;;;;;;12.06;74.56;100793.24;108470;1288;22493;-87
2023/08/10 03:24:12;;;;;;;26.50;21.00;;;;;;;12.02;74.67;100797.58;108609;1288;21997;-86
2023/08/10 03:27:12;;;;;;;23.80;20.80;;;;;;;12.01;74.64;100802.52;108565;1285;22018;-84
2023/08/10 03:30:09;;;;;;;20.30;18.40;;;;;;;11.99;74.52;100801.54;108885;1280;23089;-85
2023/08/10 03:32:47;;;;;;;23.40;20.70;;;;;;;11.97;74.62;100802.12;109301;1276;22760;-83
2023/08/10 03:36:14;;;;;;;23.00;20.60;;;;;;;11.95;74.65;100806.23;109108;1277;23816;-85
2023/08/10 03:39:15;;;;;;;25.10;22.70;;;;;;;11.90;74.73;100810.02;108872;1282;22293;-84
2023/08/10 03:42:14;;;;;;;22.50;20.30;;;;;;;11.88;74.67;100810.96;108815;1284;23856;-84
2023/08/10 03:44:56;;;;;;;23.10;20.90;;;;;;;11.87;74.67;100816.08;108745;1284;23621;-87
2023/08/10 03:47:59;;;;;;;22.30;19.90;;;;;;;11.85;74.69;100819.44;108712;1283;22746;-85
2023/08/10 03:50:49;;;;;;;22.30;20.10;;;;;;;11.84;74.81;100820.33;109124;1278;22013;-83
2023/08/10 03:53:58;;;;;;;24.40;22.10;;;;;;;11.83;74.82;100822.82;109263;1273;21968;-84
2023/08/10 03:56:46;;;;;;;21.10;18.90;;;;;;;11.81;74.92;100825.50;109784;1268;23748;-85
2023/08/10 03:59:47;;;;;;;21.50;19.40;;;;;;;11.81;74.95;100828.48;110269;1265;22016;-85
2023/08/10 04:02:36;;;;;;;20.70;18.60;;;;;;;11.80;75.15;100828.67;110325;1264;21991;-85
2023/08/10 04:05:17;;;;;;;21.20;17.50;;;;;;;11.81;75.02;100829.69;110551;1265;22075;-85
2023/08/10 04:08:14;;;;;;;24.60;17.40;;;;;;;11.83;75.10;100830.34;109983;1270;22247;-84
2023/08/10 04:10:55;;;;;;;19.40;14.80;;;;;;;11.77;75.08;100821.81;109516;1271;23608;-85
2023/08/10 04:13:46;;;;;;;20.60;15.10;;;;;;;11.86;75.25;100833.17;109757;1270;22015;-85
2023/08/10 04:16:47;;;;;;;19.20;16.10;;;;;;;11.90;75.34;100832.71;109561;1269;22048;-84
2023/08/10 04:20:00;;;;;;;27.10;15.60;;;;;;;11.90;75.58;100832.52;109784;1269;23644;-85
2023/08/10 04:23:16;;;;;;;19.50;14.40;;;;;;;11.90;75.72;100827.84;109916;1269;21986;-86
2023/08/10 04:25:58;;;;;;;17.10;14.60;;;;;;;12.03;75.73;100836.09;110225;1265;23690;-86
2023/08/10 04:28:56;;;;;;;15.00;13.30;;;;;;;12.10;75.64;100836.89;110674;1259;21982;-84
2023/08/10 04:31:44;;;;;;;17.80;13.90;;;;;;;12.18;75.57;100831.72;111034;1259;21973;-85
2023/08/10 04:34:34;;;;;;;17.70;13.50;;;;;;;12.27;75.71;100832.60;111180;1259;21989;-83
2023/08/10 04:37:28;;;;;;;;;;;;;;;;;;;;;
2023/08/10 04:40:05;;;;;;;15.20;11.80;;;;;;;12.46;75.72;100836.95;111103;1260;22032;-84
2023/08/10 04:42:40;;;;;;;16.90;11.70;;;;;;;12.56;75.57;100837.10;110976;1260;22930;-85
2023/08/10 04:45:19;;;;;;;15.60;12.50;;;;;;;12.67;75.44;100834.94;110870;1260;21971;-84
2023/08/10 04:47:58;;;;;;;13.90;12.30;;;;;;;12.78;75.41;100836.06;110888;1258;22630;-86
2023/08/10 04:50:35;;;;;;;13.90;11.40;;;;;;;12.90;75.29;100846.27;111111;1258;21988;-85
2023/08/10 04:53:11;;;;;;;20.10;12.10;;;;;;;13.02;75.26;100849.46;111324;1253;21909;-83
2023/08/10 04:55:48;;;;;;;12.30;10.30;;;;;;;13.14;75.15;100854.91;111120;1260;21945;-83
2023/08/10 04:58:33;;;;;;;12.90;10.00;;;;;;;13.29;75.18;100858.16;110887;1260;22007;-84
2023/08/10 05:01:17;;;;;;;19.80;10.80;;;;;;;13.46;75.29;100859.05;111107;1260;22032;-85
2023/08/10 05:04:15;;;;;;;12.20;9.40;;;;;;;13.68;75.25;100861.12;111019;1260;21978;-85
2023/08/10 05:06:45;;;;;;;13.70;8.40;;;;;;;13.90;75.03;100867.18;111119;1260;23733;-84
2023/08/10 05:09:15;;;;;;;7.70;5.40;;;;;;;14.12;74.78;100870.91;111104;1260;22447;-86
2023/08/10 05:11:53;;;;;;;7.10;5.80;;;;;;;14.39;74.78;100869.90;111060;1260;21976;-84
2023/08/10 05:14:37;;;;;;;9.30;5.00;;;;;;;14.68;74.14;100873.31;111396;1253;22067;-83
2023/08/10 05:17:29;;;;;;;7.70;5.60;;;;;;;14.93;73.17;100874.07;111282;1256;21978;-84
2023/08/10 05:20:10;;;;;;;7.40;5.70;;;;;;;15.15;72.11;100868.44;111121;1258;25046;-84
2023/08/10 05:22:54;;;;;;;5.60;4.50;;;;;;;15.39;71.30;100870.81;111224;1254;22298;-84
2023/08/10 05:25:30;;;;;;;7.90;4.50;;;;;;;15.64;70.76;100873.26;111136;1258;21986;-84
2023/08/10 05:28:17;;;;;;;6.50;4.40;;;;;;;15.82;69.45;100873.20;111240;1258;23613;-85
2023/08/10 05:30:57;;;;;;;7.40;4.40;;;;;;;16.01;68.68;100874.19;111103;1258;22196;-83
2023/08/10 05:33:41;;;;;;;10.40;4.30;;;;;;;16.23;68.12;100876.20;110150;1266;23030;-83
2023/08/10 05:36:34;;;;;;;9.60;4.30;;;;;;;16.46;67.46;100871.61;110297;1265;22044;-84
2023/08/10 05:39:11;;;;;;;7.10;3.90;;;;;;;16.67;66.21;100876.60;109649;1269;22016;-84
2023/08/10 05:42:05;;;;;;;9.10;3.60;;;;;;;16.84;65.09;100879.59;109848;1270;21948;-84
2023/08/10 05:44:58;;;;;;;8.80;3.70;;;;;;;17.00;64.42;100882.06;109897;1270;23753;-84
2023/08/10 05:47:52;;;;;;;9.90;4.80;;;;;;;17.28;64.47;100884.52;110166;1266;21988;-85
2023/08/10 05:50:43;;;;;;;5.20;3.50;;;;;;;17.61;63.94;100884.53;110293;1266;21932;-85
2023/08/10 05:53:23;;;;;;;6.90;3.10;;;;;;;17.91;62.91;100886.98;111141;1248;21981;-81
2023/08/10 05:56:03;;;;;;;4.90;3.20;;;;;;;18.16;61.40;100895.17;110960;1260;21983;-79
2023/08/10 05:58:37;;;;;;;7.60;3.20;;;;;;;18.34;60.29;100895.66;111566;1254;24288;-80
2023/08/10 06:01:21;;;;;;;7.10;3.80;;;;;;;18.49;59.16;100897.74;110929;1260;22006;-78
2023/08/10 06:03:52;;;;;;;6.90;3.20;;;;;;;18.62;58.73;100901.18;110846;1260;21977;-78
2023/08/10 06:06:44;;;;;;;9.10;3.40;;;;;;;18.83;59.00;100900.77;110530;1264;22314;-78
2023/08/10 06:09:23;;;;;;;5.10;3.00;;;;;;;19.17;58.60;100893.66;110302;1263;21986;-81
2023/08/10 06:11:58;;;;;;;5.70;2.90;;;;;;;19.52;58.01;100897.18;110813;1263;21988;-80
2023/08/10 06:14:31;;;;;;;5.70;3.00;;;;;;;19.85;57.08;100896.69;110119;1269;21982;-80
2023/08/10 06:17:04;;;;;;;10.00;3.40;;;;;;;20.15;55.81;100898.23;110109;1264;22008;-79
2023/08/10 06:19:40;;;;;;;4.60;3.20;;;;;;;20.35;54.89;100900.16;110058;1268;22060;-80
2023/08/10 06:22:19;;;;;;;5.60;2.80;;;;;;;20.57;53.91;100904.45;109402;1275;22012;-79
2023/08/10 06:24:53;;;;;;;4.70;2.30;;;;;;;20.85;53.17;100896.48;109476;1268;22727;-79
2023/08/10 06:27:24;;;;;;;6.30;2.60;;;;;;;21.15;52.71;100901.70;110300;1267;21979;-80
2023/08/10 06:30:01;;;;;;;4.20;2.50;;;;;;;21.45;51.89;100909.15;110032;1266;21973;-80
2023/08/10 06:32:46;;;;;;;5.60;2.60;;;;;;;21.73;51.26;100908.64;110431;1266;22055;-80
2023/08/10 06:35:20;;;;;;;6.00;2.70;;;;;;;22.11;50.94;100907.33;109772;1269;22074;-80
2023/08/10 06:37:55;;;;;;;5.30;2.50;;;;;;;22.38;49.07;100911.11;109834;1269;24348;-80
2023/08/10 06:40:33;;;;;;;4.50;2.50;;;;;;;22.59;48.86;100911.55;110858;1259;21962;-82
2023/08/10 06:43:03;;;;;;;6.60;2.30;;;;;;;22.99;48.60;100911.69;110875;1258;22035;-78
2023/08/10 06:46:17;;;;;;;;;;;;;;;23.33;47.85;100913.36;110384;1262;21952;-77
2023/08/10 06:50:21;;;;;;;4.50;2.60;;;;;;;23.55;46.77;100919.73;110705;1262;22000;-80
2023/08/10 06:53:35;;;;;;;16.60;6.70;;;;;;;23.83;46.68;100923.06;110039;1264;21979;-85
2023/08/10 06:56:12;;;;;;;12.80;4.60;;;;;;;24.16;46.39;100923.45;109783;1270;22023;-82
2023/08/10 06:58:50;;;;;;;11.40;4.40;;;;;;;24.45;45.42;100920.26;109318;1273;22000;-81
2023/08/10 07:01:37;;;;;;;5.10;3.10;;;;;;;24.68;44.68;100929.70;109557;1273;21993;-81
2023/08/10 07:04:33;;;;;;;4.60;2.30;;;;;;;24.87;43.93;100933.01;109254;1277;22173;-80
2023/08/10 07:07:15;;;;;;;5.00;2.10;;;;;;;25.06;42.87;100927.00;109249;1277;22017;-81
2023/08/10 07:10:38;;;;;;;4.90;2.00;;;;;;;25.26;42.30;100927.77;109397;1273;22379;-82
2023/08/10 07:13:51;;;;;;;6.00;2.30;;;;;;;25.53;41.87;100928.86;109276;1277;22016;-82
2023/08/10 07:16:43;;;;;;;3.80;1.90;;;;;;;25.80;41.72;100927.80;109467;1267;23997;-83
2023/08/10 07:19:41;;;;;;;9.20;4.10;;;;;;;26.04;41.31;100923.27;110046;1269;23005;-83
2023/08/10 07:22:45;;;;;;;5.20;2.30;;;;;;;26.28;40.11;100926.09;110124;1265;21989;-82
2023/08/10 07:25:55;;;;;;;3.10;1.80;;;;;;;26.43;38.95;100926.29;110536;1265;22606;-82
2023/08/10 07:28:40;;;;;;;8.40;2.00;;;;;;;26.45;38.36;100916.35;110708;1260;23039;-82
2023/08/10 07:31:12;;;;;;;6.90;2.10;;;;;;;26.61;38.43;100925.11;110835;1258;22246;-82
2023/08/10 07:34:00;;;;;;;4.50;2.00;;;;;;;26.77;38.03;100930.93;111041;1258;23050;-83
2023/08/10 07:36:48;;;;;;;3.40;1.80;;;;;;;26.91;37.66;100930.48;111055;1260;21961;-82
2023/08/10 07:39:30;;;;;;;4.70;1.70;;;;;;;27.17;37.66;100931.80;111029;1259;22014;-82
2023/08/10 07:42:16;;;;;;;4.50;2.20;;;;;;;27.52;37.15;100933.20;109963;1264;21989;-82
2023/08/10 07:45:09;;;;;;;4.50;1.70;;;;;;;27.80;35.97;100935.89;109905;1269;22010;-84
2023/08/10 07:48:49;;;;;;;7.30;3.00;;;;;;;27.98;35.10;100934.08;110011;1266;22508;-82
2023/08/10 07:51:43;;;;;;;3.60;1.40;;;;;;;28.20;34.94;100940.20;109626;1272;23706;-82
2023/08/10 07:54:48;;;;;;;2.30;1.30;;;;;;;28.22;34.08;100937.23;109592;1271;21968;-81
2023/08/10 07:57:33;;;;;;;5.30;1.20;;;;;;;28.22;33.47;100935.42;109555;1270;22749;-82
2023/08/10 08:00:16;;;;;;;5.00;1.60;;;;;;;28.28;33.13;100931.00;109768;1267;21978;-83
2023/08/10 08:03:14;;;;;;;3.50;1.60;;;;;;;28.31;32.69;100927.83;110556;1262;21974;-82
2023/08/10 08:06:01;;;;;;;5.90;1.60;;;;;;;28.19;32.09;100926.91;110212;1265;21998;-82
2023/08/10 08:08:52;;;;;;;3.50;1.70;;;;;;;28.13;32.83;100929.73;109713;1266;23042;-83
2023/08/10 08:11:34;;;;;;;4.20;1.70;;;;;;;28.31;33.38;100930.91;110584;1265;21986;-83
2023/08/10 08:15:01;;;;;;;5.00;2.40;;;;;;;28.53;32.92;100932.55;109829;1271;21990;-87
2023/08/10 08:18:38;;;;;;;2.40;1.40;;;;;;;28.72;32.03;100935.55;109184;1273;22010;-84
2023/08/10 08:22:13;;;;;;;10.00;2.80;;;;;;;28.80;32.09;100939.40;109419;1277;22153;-82
2023/08/10 08:25:28;;;;;;;2.40;1.20;;;;;;;29.01;31.91;100935.42;109534;1273;21997;-81
2023/08/10 08:28:29;;;;;;;3.30;1.90;;;;;;;29.26;31.53;100933.08;109925;1268;22013;-85
2023/08/10 08:31:35;;;;;;;2.60;1.30;;;;;;;29.39;30.66;100933.52;110198;1267;22003;-82
2023/08/10 08:34:24;;;;;;;2.90;1.50;;;;;;;29.42;30.36;100935.33;109859;1267;22050;-81
2023/08/10 08:37:19;;;;;;;7.10;1.40;;;;;;;29.46;30.01;100936.07;110706;1262;22027;-82
2023/08/10 08:40:34;;;;;;;3.80;2.00;;;;;;;29.46;29.93;100933.74;110639;1262;22030;-83
2023/08/10 08:43:56;;;;;;;2.70;1.40;;;;;;;29.36;29.50;100931.27;110641;1262;21964;-82
2023/08/10 08:46:33;;;;;;;3.20;1.30;;;;;;;29.33;29.30;100929.68;110104;1266;21978;-82
2023/08/10 08:49:22;;;;;;;3.30;1.40;;;;;;;29.31;29.16;100930.03;110278;1265;22140;-84
2023/08/10 08:54:58;;;;;;;8.60;1.90;;;;;;;29.49;29.48;100930.98;111025;1260;21954;-82
2023/08/10 08:57:33;;;;;;;3.70;1.20;;;;;;;29.57;28.87;100931.49;110729;1260;22133;-84
2023/08/10 09:00:13;;;;;;;3.80;1.50;;;;;;;29.62;28.77;100928.81;108127;1260;3758035;-83
2023/08/10 09:02:47;;;;;;;6.40;1.90;;;;;;;29.76;29.27;100928.35;110946;1260;23012;-83
2023/08/10 09:05:25;;;;;;;5.10;1.60;;;;;;;29.81;28.08;100927.23;111131;1254;22953;-83
2023/08/10 09:08:10;;;;;;;5.20;2.30;;;;;;;29.56;28.09;100925.92;111385;1254;22710;-81
2023/08/10 09:11:11;;;;;;;4.10;2.20;;;;;;;29.39;28.95;100926.52;111244;1253;22054;-81
2023/08/10 09:14:10;;;;;;;3.30;1.50;;;;;;;29.37;29.22;100923.76;111302;1254;23594;-83
2023/08/10 09:17:04;;;;;;;4.60;1.70;;;;;;;29.42;29.08;100927.55;111506;1254;22379;-83
2023/08/10 09:19:50;;;;;;;4.50;1.90;;;;;;;29.58;29.14;100914.58;111275;1255;21995;-84
2023/08/10 09:22:42;;;;;;;3.00;1.40;;;;;;;29.83;28.63;100927.77;111285;1254;21966;-83
2023/08/10 09:25:17;;;;;;;3.10;1.20;;;;;;;29.71;27.36;100929.96;110823;1260;22415;-81
2023/08/10 09:27:53;;;;;;;5.00;1.60;;;;;;;29.54;27.81;100934.02;110268;1266;23770;-83
2023/08/10 09:30:36;;;;;;;4.40;1.00;;;;;;;29.56;28.04;100931.42;109448;1272;22007;-83
2023/08/10 09:33:43;;;;;;;3.30;1.20;;;;;;;29.78;27.91;100934.23;109707;1273;21991;-84
2023/08/10 09:36:27;;;;;;;16.90;3.20;;;;;;;29.96;27.42;100933.68;109350;1278;22004;-86
2023/08/10 09:38:57;;;;;;;7.90;2.40;;;;;;;29.78;27.03;100929.89;109278;1278;22001;-82
2023/08/10 09:41:59;;;;;;;5.20;1.50;;;;;;;29.37;27.49;100930.80;109317;1276;22929;-82
2023/08/10 09:45:05;;;;;;;3.40;1.70;;;;;;;29.13;27.87;100934.24;109044;1278;21994;-84
2023/08/10 09:47:52;;;;;;;3.00;1.40;;;;;;;28.88;28.45;100936.95;109724;1272;23043;-81
2023/08/10 09:50:51;;;;;;;2.60;1.40;;;;;;;28.90;28.83;100932.83;109626;1273;23168;-82
2023/08/10 09:53:28;;;;;;;2.40;1.10;;;;;;;29.08;28.49;100929.27;109901;1266;22001;-81
2023/08/10 09:55:58;;;;;;;5.20;1.90;;;;;;;29.11;28.14;100928.38;111163;1259;21981;-82
2023/08/10 09:59:19;;;;;;;6.30;1.30;;;;;;;29.20;28.44;100924.58;111076;1260;22095;-83
2023/08/10 10:02:16;;;;;;;5.90;1.80;;;;;;;29.35;28.14;100927.26;110419;1262;23704;-83
2023/08/10 10:04:50;;;;;;;4.80;1.40;;;;;;;29.48;27.84;100933.55;110744;1262;22247;-84
2023/08/10 10:07:39;;;;;;;6.30;1.30;;;;;;;29.42;27.02;100932.42;110909;1262;21999;-82
2023/08/10 10:10:27;;;;;;;5.80;1.30;;;;;;;28.98;27.05;100932.33;110667;1262;21994;-84
2023/08/10 10:13:18;;;;;;;2.90;1.40;;;;;;;28.49;27.64;100930.60;111102;1262;23583;-83
2023/08/10 10:16:24;;;;;;;2.60;1.30;;;;;;;28.11;28.34;100927.63;110707;1262;23055;-84
2023/08/10 10:19:11;;;;;;;;;;;;;;;27.64;28.53;100927.32;111105;1262;21963;-84
2023/08/10 10:22:29;;;;;;;3.80;1.70;;;;;;;27.02;29.83;100926.85;110613;1263;22032;-83
2023/08/10 10:25:39;;;;;;;5.40;1.60;;;;;;;26.98;30.09;100926.04;110608;1267;22074;-85
2023/08/10 10:29:17;;;;;;;4.80;1.10;;;;;;;26.76;29.93;100929.11;110439;1267;21997;-84
2023/08/10 10:32:24;;;;;;;3.00;1.20;;;;;;;26.53;30.14;100928.77;109968;1273;22013;-82
2023/08/10 10:35:08;;;;;;;4.30;1.40;;;;;;;26.85;30.69;100925.55;109685;1267;22334;-83
2023/08/10 10:38:02;;;;;;;4.50;1.30;;;;;;;27.25;29.97;100923.79;110128;1266;22138;-80
2023/08/10 10:40:42;;;;;;;8.20;2.00;;;;;;;27.15;28.86;100922.80;111307;1259;23795;-84
2023/08/10 10:43:39;;;;;;;3.70;1.30;;;;;;;26.94;29.32;100924.45;111243;1259;21858;-84
2023/08/10 10:46:51;;;;;;;8.10;2.00;;;;;;;26.66;29.50;100929.63;111255;1259;23607;-84
2023/08/10 10:50:03;;;;;;;3.40;1.40;;;;;;;26.35;30.42;100926.41;111351;1254;21970;-83
2023/08/10 10:53:15;;;;;;;4.30;1.50;;;;;;;26.22;31.52;100930.27;111174;1260;21990;-82
2023/08/10 10:56:00;;;;;;;3.30;1.10;;;;;;;26.31;31.50;100928.15;111143;1260;21995;-83
2023/08/10 10:58:47;;;;;;;7.40;1.40;;;;;;;26.29;30.98;100924.83;110283;1267;21944;-83
2023/08/10 11:01:34;;;;;;;;;;;;;;;26.18;30.98;100924.64;110361;1267;21995;-84
2023/08/10 11:04:25;;;;;;;2.50;1.00;;;;;;;25.85;31.34;100922.89;110244;1267;21976;-85
2023/08/10 11:07:19;;;;;;;7.80;2.00;;;;;;;25.53;31.71;100919.77;110552;1267;22074;-84
2023/08/10 11:10:25;;;;;;;6.10;2.80;;;;;;;25.28;32.23;100917.35;110311;1261;21969;-83
2023/08/10 11:13:21;;;;;;;4.90;1.50;;;;;;;25.23;32.94;100919.06;111066;1253;23025;-83
2023/08/10 11:16:07;;;;;;;6.20;1.80;;;;;;;25.15;32.82;100914.80;110602;1260;22333;-82
2023/08/10 11:18:50;;;;;;;2.70;1.20;;;;;;;25.17;32.89;100914.43;111250;1259;22109;-83
2023/08/10 11:21:44;;;;;;;3.80;1.20;;;;;;;25.05;32.25;100912.88;111341;1251;21976;-83
2023/08/10 11:24:28;;;;;;;5.10;1.00;;;;;;;24.91;32.44;100917.67;111265;1259;21964;-83
2023/08/10 11:27:24;;;;;;;5.30;1.50;;;;;;;24.82;32.71;100917.79;111238;1259;21979;-83
2023/08/10 11:30:09;;;;;;;5.10;1.80;;;;;;;24.76;32.94;100913.64;111184;1259;24355;-83
2023/08/10 11:33:05;;;;;;;4.20;1.30;;;;;;;24.68;32.85;100914.52;111466;1259;21971;-84
2023/08/10 11:35:52;;;;;;;3.70;1.30;;;;;;;24.56;32.58;100909.52;112058;1253;21964;-84
2023/08/10 11:38:56;;;;;;;1.90;1.20;;;;;;;24.53;32.41;100910.33;112056;1253;21955;-84
2023/08/10 11:41:53;;;;;;;2.90;1.40;;;;;;;24.61;32.35;100912.54;111863;1253;21919;-82
2023/08/10 11:44:50;;;;;;;2.60;1.00;;;;;;;24.64;32.22;100913.98;111564;1259;21986;-83
2023/08/10 11:47:45;;;;;;;4.20;1.40;;;;;;;24.56;31.68;100913.48;110638;1266;23618;-83
2023/08/10 11:51:20;;;;;;;4.00;1.30;;;;;;;24.40;31.81;100908.63;110416;1266;21981;-83
2023/08/10 11:54:00;;;;;;;4.20;1.20;;;;;;;24.39;32.02;100909.56;110731;1265;21961;-84
2023/08/10 11:56:51;;;;;;;5.40;1.20;;;;;;;24.42;32.16;100907.71;110134;1269;23703;-84
2023/08/10 11:59:41;;;;;;;2.50;1.30;;;;;;;24.48;32.20;100903.65;110335;1265;22723;-83
2023/08/10 12:02:29;;;;;;;1.90;0.90;;;;;;;24.47;31.77;100903.90;110188;1267;23748;-82
2023/08/10 12:05:12;;;;;;;3.40;1.40;;;;;;;24.41;31.80;100898.75;110682;1261;21930;-83
2023/08/10 12:07:52;;;;;;;2.90;1.60;;;;;;;24.39;31.93;100897.52;110530;1265;22009;-84
2023/08/10 12:10:46;;;;;;;6.50;1.40;;;;;;;24.37;31.60;100894.86;110747;1265;22145;-83
2023/08/10 12:13:53;;;;;;;3.40;1.60;;;;;;;24.24;31.10;100896.86;111017;1265;23003;-83
2023/08/10 12:16:35;;;;;;;3.60;1.40;;;;;;;24.15;31.53;100899.06;111202;1264;21973;-83
2023/08/10 12:19:31;;;;;;;4.00;1.60;;;;;;;24.14;32.19;100899.86;110593;1268;21983;-85
2023/08/10 12:22:28;;;;;;;5.50;1.70;;;;;;;24.15;32.36;100898.33;110975;1263;21990;-83
2023/08/10 12:25:10;;;;;;;3.30;1.40;;;;;;;24.23;32.56;100894.09;111225;1259;21966;-85
2023/08/10 12:27:53;;;;;;;3.70;1.40;;;;;;;24.32;32.70;100891.36;111381;1259;21990;-84
2023/08/10 12:30:59;;;;;;;7.10;2.90;;;;;;;24.46;32.69;100888.55;110910;1264;22005;-83
2023/08/10 12:34:06;;;;;;;2.40;1.80;;;;;;;24.62;32.52;100889.45;111244;1265;23840;-84
2023/08/10 12:36:59;;;;;;;34.00;30.00;;;;;;;24.76;32.25;100890.21;111064;1259;21960;-83
2023/08/10 12:39:38;;;;;;;4.10;2.30;;;;;;;24.83;31.80;100890.09;111122;1259;21975;-83
2023/08/10 12:42:24;;;;;;;3.60;2.40;;;;;;;24.84;31.33;100887.65;111182;1260;21985;-84
2023/08/10 12:45:14;;;;;;;3.10;1.30;;;;;;;24.91;31.33;100884.23;111126;1259;21961;-84
2023/08/10 12:48:00;;;;;;;4.00;1.40;;;;;;;24.92;31.15;100884.29;111225;1263;21979;-82
2023/08/10 12:50:47;;;;;;;3.50;2.00;;;;;;;24.91;30.97;100885.96;110805;1263;21943;-84
2023/08/10 12:53:48;;;;;;;5.10;2.10;;;;;;;24.77;30.46;100883.47;111334;1263;22097;-83
2023/08/10 12:56:38;;;;;;;3.80;1.40;;;;;;;24.67;30.66;100878.84;110975;1263;23606;-83
2023/08/10 13:00:26;;;;;;;4.40;1.50;;;;;;;24.65;31.09;100879.42;111157;1263;22979;-84
2023/08/10 13:03:32;;;;;;;4.80;1.50;;;;;;;24.65;31.22;100878.52;110635;1268;23226;-82
2023/08/10 13:06:24;;;;;;;2.40;1.10;;;;;;;24.70;31.39;100878.25;110537;1264;21974;-82
2023/08/10 13:09:10;;;;;;;3.00;1.50;;;;;;;24.74;31.15;100887.20;110679;1263;23733;-85
2023/08/10 13:11:50;;;;;;;4.90;2.20;;;;;;;24.69;31.02;100883.34;111127;1264;21979;-83
2023/08/10 13:14:49;;;;;;;3.60;2.00;;;;;;;24.66;31.21;100883.98;110126;1269;22011;-85
2023/08/10 13:17:37;;;;;;;2.80;1.40;;;;;;;24.71;31.47;100876.16;110111;1269;21986;-87
2023/08/10 13:20:28;;;;;;;3.70;1.10;;;;;;;24.84;31.27;100875.73;110306;1269;21988;-84
2023/08/10 13:23:36;;;;;;;4.90;1.00;;;;;;;24.91;31.01;100875.85;110161;1269;22834;-85
2023/08/10 13:26:45;;;;;;;2.00;1.40;;;;;;;24.89;30.51;100872.28;110138;1269;23597;-84
2023/08/10 13:33:16;;;;;;;2.30;1.20;;;;;;;24.66;30.49;100866.00;110298;1268;21982;-83
2023/08/10 13:35:49;;;;;;;6.50;1.90;;;;;;;24.60;30.66;100867.92;110113;1261;22063;-82
2023/08/10 13:38:32;;;;;;;6.10;1.70;;;;;;;24.56;30.91;100865.45;110802;1267;21980;-84
2023/08/10 13:41:26;;;;;;;3.10;1.80;;;;;;;24.55;30.97;100861.80;109909;1272;21985;-85